createdAt,value
2018-01-24T00:00:40.085Z,76.24
2018-01-24T00:03:07.488Z,76.15
2018-01-24T00:05:35.431Z,76.08
2018-01-24T00:08:02.962Z,75.95
2018-01-24T00:10:30.348Z,76.20
2018-01-24T00:12:57.820Z,75.77
2018-01-24T00:15:25.217Z,76.41
2018-01-24T00:17:52.661Z,76.44
2018-01-24T00:20:20.026Z,76.89
2018-01-24T00:22:47.434Z,76.94
2018-01-24T00:25:14.831Z,76.71
2018-01-24T00:27:42.242Z,76.97
2018-01-24T00:30:09.636Z,76.75
2018-01-24T00:32:37.052Z,76.46
2018-01-24T00:35:04.455Z,76.32
2018-01-24T00:37:31.849Z,76.04
2018-01-24T00:39:59.244Z,76.65
2018-01-24T00:42:26.648Z,76.37
2018-01-24T00:44:54.051Z,75.97
2018-01-24T00:47:21.500Z,76.15
2018-01-24T00:49:48.900Z,75.74
2018-01-24T00:52:16.287Z,76.06
2018-01-24T00:54:43.710Z,76.06
2018-01-24T00:57:11.102Z,76.31
2018-01-24T00:59:38.521Z,76.13
2018-01-24T01:02:05.916Z,76.54
2018-01-24T01:04:33.318Z,76.39
2018-01-24T01:07:00.719Z,76.11
2018-01-24T01:09:28.428Z,76.80
2018-01-24T01:11:55.819Z,76.39
2018-01-24T01:14:23.233Z,76.25
2018-01-24T01:16:50.625Z,76.25
2018-01-24T01:19:18.032Z,76.99
2018-01-24T01:21:45.525Z,76.58
2018-01-24T01:24:12.944Z,76.51
2018-01-24T01:26:40.338Z,76.53
2018-01-24T01:29:10.742Z,75.81
2018-01-24T01:31:38.139Z,75.63
2018-01-24T01:34:05.597Z,75.70
2018-01-24T01:36:32.988Z,75.61
2018-01-24T01:39:00.439Z,76.63
2018-01-24T01:41:27.840Z,77.41
2018-01-24T01:43:55.244Z,77.62
2018-01-24T01:46:22.642Z,78.43
2018-01-24T01:48:50.086Z,77.81
2018-01-24T01:51:17.631Z,78.18
2018-01-24T01:53:45.024Z,77.96
2018-01-24T01:56:12.426Z,77.58
2018-01-24T01:58:39.827Z,77.73
2018-01-24T02:01:07.227Z,77.06
2018-01-24T02:03:34.616Z,76.82
2018-01-24T02:06:02.023Z,77.11
2018-01-24T02:08:29.416Z,77.17
2018-01-24T02:10:56.864Z,77.37
2018-01-24T02:13:24.216Z,76.82
2018-01-24T02:15:51.627Z,76.54
2018-01-24T02:18:19.807Z,76.42
2018-01-24T02:20:47.207Z,77.11
2018-01-24T02:23:14.605Z,76.89
2018-01-24T02:25:42.018Z,76.61
2018-01-24T02:28:09.424Z,76.04
2018-01-24T02:30:36.848Z,76.97
2018-01-24T02:33:04.249Z,76.90
2018-01-24T02:35:31.648Z,77.32
2018-01-24T02:37:59.051Z,77.34
2018-01-24T02:40:26.452Z,77.11
2018-01-24T02:42:53.920Z,77.23
2018-01-24T02:45:21.334Z,77.87
2018-01-24T02:47:48.736Z,77.58
2018-01-24T02:50:16.144Z,77.87
2018-01-24T02:52:43.540Z,77.65
2018-01-24T02:55:10.951Z,77.91
2018-01-24T02:57:38.357Z,78.11
2018-01-24T03:00:05.825Z,78.64
2018-01-24T03:02:33.220Z,78.66
2018-01-24T03:05:00.677Z,79.00
2018-01-24T03:07:28.076Z,78.89
2018-01-24T03:09:55.473Z,78.71
2018-01-24T03:12:22.917Z,78.55
2018-01-24T03:14:50.415Z,78.66
2018-01-24T03:17:17.842Z,78.95
2018-01-24T03:19:45.226Z,79.20
2018-01-24T03:22:12.640Z,78.95
2018-01-24T03:24:40.083Z,79.05
2018-01-24T03:27:07.537Z,79.38
2018-01-24T03:29:34.922Z,78.99
2018-01-24T03:32:02.337Z,78.97
2018-01-24T03:34:29.734Z,79.48
2018-01-24T03:36:57.152Z,79.62
2018-01-24T03:39:24.539Z,79.86
2018-01-24T03:41:51.948Z,80.12
2018-01-24T03:44:19.660Z,80.80
2018-01-24T03:46:47.067Z,81.32
2018-01-24T03:49:14.466Z,81.77
2018-01-24T03:51:41.867Z,81.64
2018-01-24T03:54:09.259Z,82.06
2018-01-24T03:56:36.788Z,82.18
2018-01-24T03:59:04.184Z,82.37
2018-01-24T04:01:31.596Z,82.89
2018-01-24T04:03:59.019Z,82.26
2018-01-24T04:06:26.455Z,82.04
2018-01-24T04:08:53.928Z,82.25
2018-01-24T04:11:21.332Z,82.64
2018-01-24T04:13:48.728Z,83.08
2018-01-24T04:16:16.128Z,82.91
2018-01-24T04:18:43.528Z,82.74
2018-01-24T04:21:10.990Z,82.90
2018-01-24T04:23:38.370Z,83.06
2018-01-24T04:26:05.805Z,83.26
2018-01-24T04:28:33.196Z,83.79
2018-01-24T04:31:00.760Z,84.02
2018-01-24T04:33:28.850Z,84.22
2018-01-24T04:35:56.248Z,84.24
2018-01-24T04:38:23.659Z,84.19
2018-01-24T04:40:51.055Z,84.11
2018-01-24T04:43:18.534Z,83.87
2018-01-24T04:45:45.927Z,84.00
2018-01-24T04:48:13.333Z,83.71
2018-01-24T04:50:40.725Z,83.56
2018-01-24T04:53:08.128Z,83.53
2018-01-24T04:55:35.544Z,83.27
2018-01-24T04:58:02.956Z,83.04
2018-01-24T05:00:31.045Z,82.73
2018-01-24T05:02:58.453Z,82.55
2018-01-24T05:05:25.944Z,82.80
2018-01-24T05:07:53.351Z,83.13
2018-01-24T05:10:20.740Z,83.29
2018-01-24T05:12:48.146Z,83.84
2018-01-24T05:15:16.360Z,84.09
2018-01-24T05:17:43.761Z,83.71
2018-01-24T05:20:11.168Z,83.37
2018-01-24T05:22:38.583Z,83.42
2018-01-24T05:25:05.984Z,83.75
2018-01-24T05:27:33.391Z,84.08
2018-01-24T05:30:00.799Z,84.28
2018-01-24T05:32:28.204Z,84.66
2018-01-24T05:34:55.618Z,84.82
2018-01-24T05:37:23.040Z,84.95
2018-01-24T05:39:50.437Z,85.11
2018-01-24T05:42:17.828Z,85.56
2018-01-24T05:44:45.240Z,85.60
2018-01-24T05:47:12.632Z,85.62
2018-01-24T05:49:40.042Z,85.46
2018-01-24T05:52:07.456Z,85.56
2018-01-24T05:54:34.864Z,85.52
2018-01-24T05:57:02.456Z,85.61
2018-01-24T05:59:29.848Z,85.18
2018-01-24T06:01:57.248Z,85.24
2018-01-24T06:04:24.653Z,85.47
2018-01-24T06:06:52.185Z,85.42
2018-01-24T06:09:19.583Z,85.41
2018-01-24T06:11:46.979Z,85.49
2018-01-24T06:14:14.390Z,85.75
2018-01-24T06:16:41.785Z,85.67
2018-01-24T06:19:09.276Z,85.68
2018-01-24T06:21:36.672Z,85.47
2018-01-24T06:24:04.077Z,85.49
2018-01-24T06:26:31.548Z,85.66
2018-01-24T06:28:59.018Z,86.08
2018-01-24T06:31:26.438Z,86.43
2018-01-24T06:33:53.833Z,86.24
2018-01-24T06:36:21.249Z,86.38
2018-01-24T06:38:48.665Z,86.50
2018-01-24T06:41:16.145Z,86.60
2018-01-24T06:43:43.544Z,87.03
2018-01-24T06:46:10.948Z,87.06
2018-01-24T06:48:38.356Z,87.49
2018-01-24T06:51:05.764Z,87.67
2018-01-24T06:53:33.195Z,87.75
2018-01-24T06:56:00.658Z,87.67
2018-01-24T06:58:28.064Z,87.79
2018-01-24T07:00:55.675Z,87.75
2018-01-24T07:03:23.062Z,87.65
2018-01-24T07:05:50.462Z,87.57
2018-01-24T07:08:17.864Z,87.45
2018-01-24T07:10:45.338Z,87.45
2018-01-24T07:13:24.484Z,87.52
2018-01-24T07:15:51.935Z,87.59
2018-01-24T07:18:20.183Z,87.69
2018-01-24T07:20:47.590Z,87.76
2018-01-24T07:23:14.976Z,87.82
2018-01-24T07:25:42.384Z,87.77
2018-01-24T07:28:09.790Z,87.81
2018-01-24T07:30:37.302Z,87.61
2018-01-24T07:33:04.699Z,87.51
2018-01-24T07:35:32.122Z,87.43
2018-01-24T07:37:59.499Z,87.31
2018-01-24T07:40:26.898Z,87.13
2018-01-24T07:42:54.463Z,87.09
2018-01-24T07:45:21.965Z,86.70
2018-01-24T07:47:49.527Z,86.55
2018-01-24T07:50:16.960Z,86.54
2018-01-24T07:52:44.354Z,86.35
2018-01-24T07:55:12.003Z,86.14
2018-01-24T07:57:39.404Z,85.71
2018-01-24T08:00:06.779Z,85.26
2018-01-24T08:02:34.198Z,84.77
2018-01-24T08:05:01.622Z,84.47
2018-01-24T08:07:29.024Z,84.33
2018-01-24T08:09:56.645Z,83.93
2018-01-24T08:12:24.039Z,83.87
2018-01-24T08:14:51.440Z,83.48
2018-01-24T08:17:19.256Z,83.02
2018-01-24T08:19:46.643Z,82.65
2018-01-24T08:22:14.071Z,82.94
2018-01-24T08:24:41.465Z,82.59
2018-01-24T08:27:08.873Z,82.59
2018-01-24T08:29:36.290Z,82.21
2018-01-24T08:32:03.704Z,81.89
2018-01-24T08:34:31.106Z,81.72
2018-01-24T08:36:58.517Z,81.51
2018-01-24T08:39:25.917Z,81.73
2018-01-24T08:41:53.332Z,81.85
2018-01-24T08:44:20.832Z,81.46
2018-01-24T08:46:48.241Z,80.83
2018-01-24T08:49:15.640Z,79.60
2018-01-24T08:51:43.057Z,79.71
2018-01-24T08:54:10.460Z,79.81
2018-01-24T08:56:37.867Z,79.35
2018-01-24T08:59:05.271Z,78.79
2018-01-24T09:01:50.161Z,78.43
2018-01-24T09:04:35.772Z,78.57
2018-01-24T09:07:20.974Z,79.17
2018-01-24T09:10:05.755Z,78.49
2018-01-24T09:12:50.520Z,77.77
2018-01-24T09:15:35.459Z,77.19
2018-01-24T09:18:20.459Z,77.53
2018-01-24T09:21:05.301Z,77.08
2018-01-24T09:23:56.123Z,76.62
2018-01-24T09:26:23.523Z,76.60
2018-01-24T09:28:50.958Z,76.16
2018-01-24T09:31:18.347Z,75.66
2018-01-24T09:33:45.760Z,74.76
2018-01-24T09:36:13.152Z,74.03
2018-01-24T09:38:40.560Z,74.32
2018-01-24T09:41:07.960Z,74.20
2018-01-24T09:43:35.429Z,73.48
2018-01-24T09:46:02.943Z,74.16
2018-01-24T09:48:30.344Z,74.12
2018-01-24T09:50:57.763Z,73.94
2018-01-24T09:53:25.195Z,73.12
2018-01-24T09:55:52.590Z,72.39
2018-01-24T09:58:20.005Z,72.33
2018-01-24T10:00:47.413Z,72.57
2018-01-24T10:03:14.821Z,72.48
2018-01-24T10:05:42.331Z,72.15
2018-01-24T10:08:09.749Z,71.54
2018-01-24T10:10:37.144Z,72.26
2018-01-24T10:13:04.560Z,72.30
2018-01-24T10:15:32.004Z,71.37
2018-01-24T10:17:59.416Z,72.01
2018-01-24T10:20:26.828Z,70.54
2018-01-24T10:22:54.274Z,70.91
2018-01-24T10:25:21.675Z,70.31
2018-01-24T10:27:49.064Z,70.10
2018-01-24T10:30:16.468Z,70.58
2018-01-24T10:32:43.872Z,70.68
2018-01-24T10:35:11.283Z,70.02
2018-01-24T10:37:38.676Z,70.01
2018-01-24T10:40:06.094Z,70.76
2018-01-24T10:42:33.508Z,70.18
2018-01-24T10:45:00.904Z,69.99
2018-01-24T10:47:28.425Z,70.30
2018-01-24T10:49:55.840Z,70.54
2018-01-24T10:52:23.247Z,70.11
2018-01-24T10:54:50.650Z,69.60
2018-01-24T10:57:18.061Z,69.03
2018-01-24T10:59:45.526Z,68.57
2018-01-24T11:02:12.956Z,68.17
2018-01-24T11:04:40.352Z,67.57
2018-01-24T11:07:07.760Z,67.53
2018-01-24T11:09:35.171Z,67.37
2018-01-24T11:12:02.565Z,67.82
2018-01-24T11:14:29.983Z,67.68
2018-01-24T11:16:57.408Z,65.83
2018-01-24T11:19:24.818Z,67.53
2018-01-24T11:21:52.265Z,67.54
2018-01-24T11:24:19.668Z,66.58
2018-01-24T11:26:47.273Z,67.66
2018-01-24T11:29:14.673Z,68.09
2018-01-24T11:31:42.072Z,67.83
2018-01-24T11:34:09.480Z,66.75
2018-01-24T11:36:36.881Z,67.29
2018-01-24T11:39:04.281Z,67.79
2018-01-24T11:41:31.687Z,67.62
2018-01-24T11:43:59.096Z,67.92
2018-01-24T11:46:26.492Z,67.02
2018-01-24T11:48:53.888Z,66.19
2018-01-24T11:51:21.292Z,66.05
2018-01-24T11:53:48.696Z,65.22
2018-01-24T11:56:16.101Z,66.53
2018-01-24T11:58:43.504Z,67.00
2018-01-24T12:01:10.909Z,66.52
2018-01-24T12:03:38.316Z,65.69
2018-01-24T12:06:05.723Z,65.58
2018-01-24T12:08:33.120Z,65.32
2018-01-24T12:11:00.524Z,64.93
2018-01-24T12:13:27.924Z,64.96
2018-01-24T12:15:55.333Z,63.78
2018-01-24T12:18:23.234Z,63.50
2018-01-24T12:20:50.678Z,63.32
2018-01-24T12:23:18.106Z,63.76
2018-01-24T12:25:45.520Z,63.42
2018-01-24T12:28:12.924Z,65.70
2018-01-24T12:30:40.524Z,64.36
2018-01-24T12:33:07.943Z,65.07
2018-01-24T12:35:35.358Z,63.92
2018-01-24T12:38:02.752Z,64.49
2018-01-24T12:40:30.152Z,62.99
2018-01-24T12:42:57.674Z,63.69
2018-01-24T12:45:25.109Z,63.14
2018-01-24T12:47:52.481Z,62.56
2018-01-24T12:50:19.869Z,62.61
2018-01-24T12:52:47.294Z,60.90
2018-01-24T12:55:14.949Z,60.54
2018-01-24T12:57:42.359Z,61.05
2018-01-24T13:00:09.756Z,60.98
2018-01-24T13:02:37.199Z,60.73
2018-01-24T13:05:04.599Z,61.08
2018-01-24T13:07:32.018Z,60.85
2018-01-24T13:09:59.404Z,61.39
2018-01-24T13:12:26.812Z,59.83
2018-01-24T13:14:54.208Z,61.01
2018-01-24T13:17:21.624Z,59.36
2018-01-24T13:19:49.023Z,60.71
2018-01-24T13:22:16.423Z,59.78
2018-01-24T13:24:43.822Z,61.89
2018-01-24T13:27:11.220Z,61.66
2018-01-24T13:29:38.623Z,60.70
2018-01-24T13:32:06.024Z,59.44
2018-01-24T13:34:33.425Z,59.56
2018-01-24T13:37:00.838Z,60.27
2018-01-24T13:39:28.233Z,60.09
2018-01-24T13:41:55.640Z,59.96
2018-01-24T13:44:23.078Z,60.47
2018-01-24T13:46:50.490Z,60.51
2018-01-24T13:49:17.888Z,59.08
2018-01-24T13:51:45.292Z,59.54
2018-01-24T13:54:12.702Z,60.22
2018-01-24T13:56:40.106Z,59.94
2018-01-24T13:59:07.505Z,59.60
2018-01-24T14:01:34.912Z,61.14
2018-01-24T14:04:02.316Z,60.92
2018-01-24T14:06:29.712Z,60.74
2018-01-24T14:08:57.121Z,61.79
2018-01-24T14:11:24.510Z,61.48
2018-01-24T14:13:51.910Z,60.86
2018-01-24T14:16:19.327Z,61.73
2018-01-24T14:18:46.920Z,61.89
2018-01-24T14:21:14.320Z,61.89
2018-01-24T14:23:41.724Z,61.85
2018-01-24T14:26:09.121Z,62.06
2018-01-24T14:28:36.626Z,62.42
2018-01-24T14:31:04.010Z,63.25
2018-01-24T14:33:31.413Z,62.69
2018-01-24T14:35:58.812Z,63.69
2018-01-24T14:38:26.229Z,64.73
2018-01-24T14:40:53.620Z,64.70
2018-01-24T14:43:21.023Z,64.75
2018-01-24T14:45:48.429Z,64.18
2018-01-24T14:48:15.827Z,64.53
2018-01-24T14:50:43.274Z,64.58
2018-01-24T14:53:10.624Z,64.33
2018-01-24T14:55:38.022Z,64.73
2018-01-24T14:58:05.420Z,65.26
2018-01-24T15:00:32.921Z,66.04
2018-01-24T15:03:00.324Z,65.68
2018-01-24T15:05:27.823Z,65.61
2018-01-24T15:07:55.232Z,65.87
2018-01-24T15:10:23.208Z,66.70
2018-01-24T15:12:50.619Z,67.18
2018-01-24T15:15:18.017Z,67.67
2018-01-24T15:17:45.417Z,67.92
2018-01-24T15:20:12.841Z,68.27
2018-01-24T15:22:40.237Z,68.37
2018-01-24T15:25:07.692Z,68.05
2018-01-24T15:27:35.045Z,68.11
2018-01-24T15:30:02.483Z,68.95
2018-01-24T15:32:29.872Z,68.98
2018-01-24T15:34:57.285Z,69.27
2018-01-24T15:37:24.724Z,69.02
2018-01-24T15:39:52.144Z,69.48
2018-01-24T15:42:19.547Z,69.54
2018-01-24T15:44:46.944Z,69.52
2018-01-24T15:47:14.347Z,70.10
2018-01-24T15:49:41.741Z,70.81
2018-01-24T15:52:09.142Z,71.01
2018-01-24T15:54:36.552Z,71.08
2018-01-24T15:57:03.969Z,70.92
2018-01-24T15:59:31.388Z,71.25
2018-01-24T16:01:58.787Z,71.71
2018-01-24T16:04:26.196Z,71.32
2018-01-24T16:06:53.598Z,71.79
2018-01-24T16:09:21.012Z,71.27
2018-01-24T16:11:48.431Z,71.26
2018-01-24T16:14:15.840Z,71.12
2018-01-24T16:16:43.244Z,71.30
2018-01-24T16:19:10.666Z,71.55
2018-01-24T16:21:38.226Z,71.36
2018-01-24T16:24:05.640Z,71.30
2018-01-24T16:26:33.055Z,70.52
2018-01-24T16:29:00.452Z,70.52
2018-01-24T16:31:27.858Z,70.89
2018-01-24T16:33:55.478Z,70.97
2018-01-24T16:36:22.887Z,70.90
2018-01-24T16:38:53.329Z,70.98
2018-01-24T16:41:20.736Z,70.54
2018-01-24T16:43:48.143Z,70.65
2018-01-24T16:46:15.546Z,70.10
2018-01-24T16:48:43.579Z,70.70
2018-01-24T16:51:10.997Z,70.28
2018-01-24T16:53:38.401Z,70.01
2018-01-24T16:56:05.825Z,70.32
2018-01-24T16:58:33.228Z,70.69
2018-01-24T17:01:00.696Z,70.01
2018-01-24T17:03:28.104Z,69.93
2018-01-24T17:05:55.524Z,70.04
2018-01-24T17:08:22.924Z,69.96
2018-01-24T17:10:50.328Z,70.22
2018-01-24T17:13:17.734Z,70.34
2018-01-24T17:15:45.148Z,70.69
2018-01-24T17:18:12.551Z,71.11
2018-01-24T17:23:13.649Z,70.88
2018-01-24T17:25:41.050Z,71.10
2018-01-24T17:28:08.455Z,70.84
2018-01-24T17:30:36.041Z,70.90
2018-01-24T17:33:03.472Z,71.05
2018-01-24T17:35:30.867Z,70.55
2018-01-24T17:37:58.276Z,70.54
2018-01-24T17:40:25.709Z,70.22
2018-01-24T17:42:53.113Z,70.00
2018-01-24T17:45:20.514Z,69.16
2018-01-24T17:47:47.941Z,69.37
2018-01-24T17:50:15.343Z,69.32
2018-01-24T17:52:42.755Z,69.09
2018-01-24T17:55:10.196Z,69.03
2018-01-24T17:57:37.599Z,68.76
2018-01-24T18:00:05.047Z,69.02
2018-01-24T18:02:32.506Z,69.26
2018-01-24T18:04:59.896Z,68.38
2018-01-24T18:07:27.359Z,67.39
2018-01-24T18:09:54.806Z,67.46
2018-01-24T18:12:22.209Z,67.39
2018-01-24T18:14:50.851Z,67.40
2018-01-24T18:17:18.304Z,67.74
2018-01-24T18:19:45.751Z,66.86
2018-01-24T18:22:13.615Z,66.79
2018-01-24T18:24:41.722Z,66.28
2018-01-24T18:27:09.199Z,66.89
2018-01-24T18:29:36.646Z,66.83
2018-01-24T18:32:04.044Z,66.38
2018-01-24T18:34:31.538Z,65.86
2018-01-24T18:36:58.945Z,66.15
2018-01-24T18:39:26.392Z,66.20
2018-01-24T18:41:53.836Z,66.05
2018-01-24T18:44:22.250Z,65.29
2018-01-24T18:46:49.661Z,66.21
2018-01-24T18:49:17.064Z,65.85
2018-01-24T18:51:44.464Z,65.27
2018-01-24T18:54:11.910Z,66.37
2018-01-24T18:56:39.305Z,65.86
2018-01-24T18:59:06.764Z,66.49
2018-01-24T19:01:34.223Z,66.59
2018-01-24T19:04:01.652Z,66.87
2018-01-24T19:06:29.057Z,67.22
2018-01-24T19:08:56.547Z,67.14
2018-01-24T19:11:23.977Z,67.97
2018-01-24T19:13:51.439Z,67.44
2018-01-24T19:16:19.164Z,67.05
2018-01-24T19:18:47.027Z,67.93
2018-01-24T19:21:14.550Z,67.75
2018-01-24T19:23:41.981Z,68.26
2018-01-24T19:26:10.140Z,68.59
2018-01-24T19:28:37.665Z,68.03
2018-01-24T19:31:05.056Z,68.15
2018-01-24T19:33:32.517Z,68.95
2018-01-24T19:35:59.917Z,68.83
2018-01-24T19:38:27.368Z,69.49
2018-01-24T19:40:54.819Z,69.08
2018-01-24T19:43:22.213Z,69.30
2018-01-24T19:45:49.613Z,69.22
2018-01-24T19:48:17.049Z,69.15
2018-01-24T19:50:44.536Z,69.34
2018-01-24T19:53:11.935Z,69.32
2018-01-24T19:55:39.444Z,69.30
2018-01-24T19:58:06.928Z,69.32
2018-01-24T20:00:35.338Z,69.67
2018-01-24T20:03:02.779Z,69.79
2018-01-24T20:05:30.220Z,70.32
2018-01-24T20:07:57.655Z,69.10
2018-01-24T20:10:25.058Z,69.87
2018-01-24T20:12:53.770Z,69.98
2018-01-24T20:15:21.281Z,70.69
2018-01-24T20:17:49.657Z,71.26
2018-01-24T20:20:17.095Z,71.31
2018-01-24T20:22:44.803Z,70.82
2018-01-24T20:25:12.264Z,69.60
2018-01-24T20:27:39.811Z,69.62
2018-01-24T20:30:07.261Z,69.75
2018-01-24T20:32:34.691Z,69.70
2018-01-24T20:35:02.095Z,69.89
2018-01-24T20:37:29.533Z,69.94
2018-01-24T20:39:57.036Z,69.90
2018-01-24T20:42:24.421Z,68.52
2018-01-24T20:44:51.887Z,69.32
2018-01-24T20:47:19.971Z,69.97
2018-01-24T20:49:47.427Z,70.01
2018-01-24T20:52:14.868Z,68.92
2018-01-24T20:54:42.270Z,70.00
2018-01-24T20:57:09.743Z,70.76
2018-01-24T20:59:37.201Z,69.80
2018-01-24T21:02:04.635Z,69.50
2018-01-24T21:04:32.247Z,71.24
2018-01-24T21:06:59.700Z,70.17
2018-01-24T21:09:28.017Z,70.70
2018-01-24T21:11:55.539Z,70.50
2018-01-24T21:14:23.040Z,70.49
2018-01-24T21:16:50.486Z,70.21
2018-01-24T21:19:18.246Z,69.37
2018-01-24T21:21:45.699Z,70.77
2018-01-24T21:24:13.341Z,69.35
2018-01-24T21:26:41.380Z,70.53
2018-01-24T21:29:29.674Z,71.44
2018-01-24T21:32:08.739Z,70.36
2018-01-24T21:34:41.949Z,71.59
2018-01-24T21:37:10.003Z,70.41
2018-01-24T21:39:40.084Z,69.94
2018-01-24T21:42:07.480Z,70.34
2018-01-24T21:44:34.876Z,69.79
2018-01-24T21:47:03.060Z,70.51
2018-01-24T21:49:30.455Z,70.41
2018-01-24T21:51:57.920Z,69.95
2018-01-24T21:54:25.307Z,70.47
2018-01-24T21:56:52.719Z,70.96
2018-01-24T22:02:38.829Z,69.53
2018-01-24T22:05:06.237Z,70.01
2018-01-24T22:07:33.625Z,69.93
2018-01-24T22:10:01.024Z,70.59
2018-01-24T22:12:28.448Z,70.08
2018-01-24T22:14:55.846Z,71.10
2018-01-24T22:17:23.317Z,69.95
2018-01-24T22:19:50.707Z,70.37
2018-01-24T22:22:18.364Z,71.68
2018-01-24T22:24:45.797Z,71.37
2018-01-24T22:27:13.202Z,72.18
2018-01-24T22:29:40.603Z,73.14
2018-01-24T22:32:08.029Z,73.36
2018-01-24T22:34:35.428Z,73.92
2018-01-24T22:37:02.885Z,74.29
2018-01-24T22:39:30.374Z,73.40
2018-01-24T22:41:57.803Z,73.87
2018-01-24T22:44:25.189Z,76.15
2018-01-24T22:46:52.592Z,77.14
2018-01-24T22:49:19.992Z,77.00
2018-01-24T22:51:47.593Z,76.60
2018-01-24T22:54:15.018Z,76.69
2018-01-24T22:56:42.423Z,76.53
2018-01-24T22:59:09.907Z,76.98
2018-01-24T23:01:37.307Z,76.63
2018-01-24T23:04:04.694Z,76.22
2018-01-24T23:06:32.096Z,75.76
2018-01-24T23:08:59.500Z,75.58
2018-01-24T23:11:26.899Z,75.33
2018-01-24T23:13:54.296Z,75.16
2018-01-24T23:16:21.701Z,75.63
2018-01-24T23:18:49.109Z,76.60
2018-01-24T23:21:16.500Z,74.67
2018-01-24T23:23:43.916Z,74.91
2018-01-24T23:26:11.308Z,75.30
2018-01-24T23:28:38.713Z,75.23
2018-01-24T23:31:06.107Z,75.23
2018-01-24T23:33:34.416Z,74.77
2018-01-24T23:36:01.819Z,73.11
2018-01-24T23:38:29.398Z,72.34
2018-01-24T23:40:56.806Z,71.97
2018-01-24T23:43:24.204Z,71.92
2018-01-24T23:45:51.602Z,71.30
2018-01-24T23:48:19.008Z,71.74
2018-01-24T23:50:46.465Z,71.51
2018-01-24T23:53:13.857Z,71.27
2018-01-24T23:55:41.248Z,72.23
2018-01-24T23:58:08.717Z,70.10
